createdAt,value
2022-11-21T00:00:52.232Z,21.52
2022-11-21T00:03:18.771Z,21.23
2022-11-21T00:05:47.491Z,19.40
2022-11-21T00:08:16.858Z,21.38
2022-11-21T00:10:43.849Z,21.80
2022-11-21T00:13:16.207Z,20.05
2022-11-21T00:15:43.820Z,20.70
2022-11-21T00:18:13.991Z,20.67
2022-11-21T00:20:41.936Z,20.45
2022-11-21T00:23:08.978Z,20.00
2022-11-21T00:25:36.181Z,20.00
2022-11-21T00:28:02.966Z,21.52
2022-11-21T00:30:29.507Z,20.27
2022-11-21T00:32:57.906Z,20.40
2022-11-21T00:35:24.367Z,19.73
2022-11-21T00:37:50.904Z,20.30
2022-11-21T00:40:18.176Z,20.58
2022-11-21T00:42:44.778Z,19.17
2022-11-21T00:45:12.013Z,21.48
2022-11-21T00:47:38.466Z,21.35
2022-11-21T00:50:05.265Z,19.67
2022-11-21T00:52:31.704Z,20.50
2022-11-21T00:54:58.204Z,19.60
2022-11-21T00:57:24.720Z,19.65
2022-11-21T00:59:51.146Z,19.63
2022-11-21T01:02:17.703Z,19.98
2022-11-21T01:04:44.337Z,20.17
2022-11-21T01:07:13.420Z,20.15
2022-11-21T01:09:39.945Z,20.00
2022-11-21T01:12:06.513Z,21.42
2022-11-21T01:14:32.933Z,20.15
2022-11-21T01:16:59.529Z,20.75
2022-11-21T01:19:25.998Z,20.65
2022-11-21T01:21:52.459Z,20.23
2022-11-21T01:24:18.881Z,20.63
2022-11-21T01:26:45.304Z,21.58
2022-11-21T01:29:11.842Z,21.10
2022-11-21T01:31:38.286Z,20.20
2022-11-21T01:34:04.755Z,20.58
2022-11-21T01:36:33.422Z,20.45
2022-11-21T01:39:05.474Z,21.38
2022-11-21T01:41:35.539Z,20.67
2022-11-21T01:44:07.153Z,19.92
2022-11-21T01:46:33.553Z,21.23
2022-11-21T01:48:59.934Z,21.67
2022-11-21T01:51:32.999Z,20.80
2022-11-21T01:54:14.374Z,21.13
2022-11-21T01:56:59.551Z,20.38
2022-11-21T01:59:34.675Z,19.77
2022-11-21T02:02:03.675Z,20.83
2022-11-21T02:04:32.809Z,22.15
2022-11-21T02:07:24.824Z,20.05
2022-11-21T02:09:56.734Z,21.88
2022-11-21T02:12:29.906Z,21.83
2022-11-21T02:14:57.651Z,20.27
2022-11-21T02:17:26.635Z,21.83
2022-11-21T02:19:57.662Z,21.35
2022-11-21T02:22:32.881Z,21.27
2022-11-21T02:25:15.687Z,20.65
2022-11-21T02:27:42.414Z,22.30
2022-11-21T02:30:10.506Z,21.30
2022-11-21T02:32:45.181Z,22.33
2022-11-21T02:35:11.595Z,22.95
2022-11-21T02:37:38.063Z,23.70
2022-11-21T02:40:12.838Z,22.60
2022-11-21T02:42:52.899Z,22.13
2022-11-21T02:45:33.179Z,23.38
2022-11-21T02:48:03.985Z,21.73
2022-11-21T02:50:36.261Z,22.30
2022-11-21T02:53:04.858Z,22.52
2022-11-21T02:55:31.674Z,22.05
2022-11-21T02:58:03.215Z,23.63
2022-11-21T03:00:32.123Z,21.33
2022-11-21T03:02:58.509Z,21.60
2022-11-21T03:05:25.093Z,22.25
2022-11-21T03:07:51.530Z,22.50
2022-11-21T03:10:18.008Z,22.88
2022-11-21T03:12:44.579Z,22.60
2022-11-21T03:15:13.489Z,22.45
2022-11-21T03:17:40.778Z,22.90
2022-11-21T03:20:08.280Z,23.17
2022-11-21T03:22:35.004Z,21.02
2022-11-21T03:25:01.520Z,22.42
2022-11-21T03:27:28.144Z,23.02
2022-11-21T03:29:54.555Z,24.17
2022-11-21T03:32:20.973Z,23.90
2022-11-21T03:34:47.396Z,23.77
2022-11-21T03:37:13.772Z,24.08
2022-11-21T03:39:40.176Z,23.77
2022-11-21T03:42:06.599Z,24.80
2022-11-21T03:44:33.124Z,22.90
2022-11-21T03:46:59.515Z,23.90
2022-11-21T03:49:25.923Z,23.50
2022-11-21T03:51:52.361Z,24.20
2022-11-21T03:54:18.800Z,23.75
2022-11-21T03:56:45.278Z,21.77
2022-11-21T03:59:11.833Z,23.15
2022-11-21T04:01:38.707Z,22.85
2022-11-21T04:04:05.652Z,23.48
2022-11-21T04:06:32.257Z,23.20
2022-11-21T04:08:58.669Z,24.63
2022-11-21T04:11:25.257Z,22.85
2022-11-21T04:13:54.470Z,24.23
2022-11-21T04:16:21.188Z,23.35
2022-11-21T04:18:47.823Z,27.35
2022-11-21T04:21:14.374Z,25.80
2022-11-21T04:23:40.935Z,25.08
2022-11-21T04:26:07.386Z,24.02
2022-11-21T04:28:33.828Z,25.17
2022-11-21T04:31:09.953Z,24.63
2022-11-21T04:33:37.527Z,25.40
2022-11-21T04:36:04.082Z,24.70
2022-11-21T04:38:30.542Z,25.90
2022-11-21T04:40:56.984Z,24.40
2022-11-21T04:43:23.410Z,24.27
2022-11-21T04:45:49.949Z,25.60
2022-11-21T04:48:16.501Z,24.67
2022-11-21T04:50:42.946Z,24.95
2022-11-21T04:53:09.362Z,24.65
2022-11-21T04:55:35.774Z,24.80
2022-11-21T04:58:02.194Z,24.88
2022-11-21T05:00:28.943Z,24.40
2022-11-21T05:02:55.397Z,25.40
2022-11-21T05:05:21.806Z,23.83
2022-11-21T05:07:48.210Z,24.73
2022-11-21T05:10:14.845Z,25.83
2022-11-21T05:12:59.760Z,27.45
2022-11-21T05:15:26.244Z,27.38
2022-11-21T05:17:52.656Z,26.60
2022-11-21T05:20:19.285Z,26.75
2022-11-21T05:22:49.904Z,27.17
2022-11-21T05:25:16.752Z,28.83
2022-11-21T05:27:43.250Z,27.67
2022-11-21T05:30:11.022Z,29.98
2022-11-21T05:32:37.828Z,28.90
2022-11-21T05:35:04.399Z,26.92
2022-11-21T05:37:30.965Z,25.98
2022-11-21T05:39:57.467Z,25.77
2022-11-21T05:42:43.849Z,25.23
2022-11-21T05:45:10.675Z,24.23
2022-11-21T05:47:37.248Z,25.08
2022-11-21T05:50:04.163Z,24.88
2022-11-21T05:52:30.716Z,25.15
2022-11-21T05:54:57.128Z,25.85
2022-11-21T05:57:23.552Z,24.88
2022-11-21T05:59:49.948Z,25.63
2022-11-21T06:02:35.038Z,24.67
2022-11-21T06:05:01.469Z,25.00
2022-11-21T06:07:28.179Z,24.17
2022-11-21T06:09:54.616Z,25.38
2022-11-21T06:12:25.207Z,24.55
2022-11-21T06:14:52.198Z,25.83
2022-11-21T06:17:18.669Z,25.55
2022-11-21T06:19:45.144Z,25.67
2022-11-21T06:22:11.556Z,24.90
2022-11-21T06:24:37.977Z,26.05
2022-11-21T06:27:04.393Z,25.45
2022-11-21T06:29:30.836Z,26.63
2022-11-21T06:31:57.286Z,23.73
2022-11-21T06:34:26.313Z,26.15
2022-11-21T06:36:53.433Z,25.05
2022-11-21T06:39:19.973Z,25.40
2022-11-21T06:41:51.153Z,25.23
2022-11-21T06:44:18.559Z,25.88
2022-11-21T06:46:50.668Z,26.33
2022-11-21T06:49:17.707Z,24.45
2022-11-21T06:51:44.295Z,23.63
2022-11-21T06:54:16.259Z,25.40
2022-11-21T06:56:43.487Z,28.40
2022-11-21T06:59:10.029Z,26.27
2022-11-21T07:01:36.616Z,25.60
2022-11-21T07:04:03.099Z,26.25
2022-11-21T07:06:29.525Z,24.98
2022-11-21T07:09:25.221Z,26.02
2022-11-21T07:11:43.061Z,26.58
2022-11-21T07:14:09.764Z,26.73
2022-11-21T07:16:36.687Z,24.85
2022-11-21T07:19:03.255Z,24.88
2022-11-21T07:21:29.727Z,26.38
2022-11-21T07:23:56.207Z,25.95
2022-11-21T07:26:22.605Z,26.55
2022-11-21T07:28:49.107Z,28.77
2022-11-21T07:31:15.718Z,29.35
2022-11-21T07:33:46.746Z,27.95
2022-11-21T07:36:13.649Z,27.85
2022-11-21T07:38:41.475Z,26.58
2022-11-21T07:41:08.635Z,28.58
2022-11-21T07:43:35.091Z,30.25
2022-11-21T07:46:01.562Z,29.83
2022-11-21T07:48:28.021Z,27.48
2022-11-21T07:50:54.417Z,31.20
2022-11-21T07:53:20.917Z,30.00
2022-11-21T07:55:47.398Z,29.23
2022-11-21T07:58:16.038Z,28.52
2022-11-21T08:00:45.156Z,29.00
2022-11-21T08:03:12.822Z,29.15
2022-11-21T08:05:42.443Z,29.83
2022-11-21T08:08:10.459Z,30.73
2022-11-21T08:10:38.893Z,30.17
2022-11-21T08:13:05.712Z,32.63
2022-11-21T08:15:32.501Z,31.75
2022-11-21T08:17:59.035Z,33.08
2022-11-21T08:20:25.478Z,30.83
2022-11-21T08:22:51.949Z,29.38
2022-11-21T08:25:18.358Z,31.17
2022-11-21T08:27:44.909Z,29.85
2022-11-21T08:30:12.197Z,31.15
2022-11-21T08:32:38.668Z,29.80
2022-11-21T08:35:05.561Z,28.85
2022-11-21T08:37:32.167Z,31.27
2022-11-21T08:39:59.003Z,29.33
2022-11-21T08:42:26.008Z,27.42
2022-11-21T08:44:52.523Z,27.40
2022-11-21T08:47:20.425Z,26.35
2022-11-21T08:49:47.775Z,26.13
2022-11-21T08:52:17.472Z,23.05
2022-11-21T08:54:45.322Z,26.73
2022-11-21T08:57:12.625Z,27.23
2022-11-21T08:59:39.189Z,26.02
2022-11-21T09:02:05.692Z,27.88
2022-11-21T09:04:32.243Z,29.70
2022-11-21T09:06:58.710Z,29.42
2022-11-21T09:09:25.783Z,27.20
2022-11-21T09:11:52.446Z,26.05
2022-11-21T09:14:37.866Z,26.40
2022-11-21T09:17:23.048Z,25.80
2022-11-21T09:19:49.537Z,25.80
2022-11-21T09:22:15.924Z,26.23
2022-11-21T09:24:42.337Z,23.48
2022-11-21T09:27:08.753Z,26.92
2022-11-21T09:29:35.172Z,23.42
2022-11-21T09:32:01.599Z,19.38
2022-11-21T09:34:28.242Z,18.33
2022-11-21T09:36:55.528Z,19.48
2022-11-21T09:39:22.229Z,18.98
2022-11-21T09:42:03.644Z,18.67
2022-11-21T09:44:39.228Z,19.52
2022-11-21T09:47:20.096Z,19.15
2022-11-21T09:49:51.514Z,17.13
2022-11-21T09:54:53.635Z,16.10
2022-11-21T09:57:24.432Z,16.15
2022-11-21T09:59:52.052Z,16.35
2022-11-21T10:02:21.399Z,16.83
2022-11-21T10:04:48.794Z,16.13
2022-11-21T10:07:29.211Z,15.27
2022-11-21T10:10:01.283Z,14.05
2022-11-21T10:13:00.132Z,15.02
2022-11-21T10:15:52.470Z,16.83
2022-11-21T10:18:52.709Z,17.00
2022-11-21T10:21:48.878Z,14.48
2022-11-21T10:24:30.915Z,14.10
2022-11-21T10:27:11.692Z,14.90
2022-11-21T10:29:53.206Z,14.00
2022-11-21T10:32:37.422Z,14.05
2022-11-21T10:35:22.112Z,13.70
2022-11-21T10:37:52.673Z,13.77
2022-11-21T10:40:43.657Z,10.47
2022-11-21T10:43:34.819Z,13.48
2022-11-21T10:46:01.263Z,13.13
2022-11-21T10:48:27.686Z,12.98
2022-11-21T10:51:25.116Z,13.75
2022-11-21T10:54:29.116Z,12.13
2022-11-21T10:57:06.090Z,12.77
2022-11-21T10:59:32.690Z,11.85
2022-11-21T11:02:12.794Z,12.32
2022-11-21T11:04:47.416Z,12.52
2022-11-21T11:07:27.653Z,12.25
2022-11-21T11:10:27.547Z,13.40
2022-11-21T11:13:44.004Z,11.65
2022-11-21T11:16:18.456Z,12.65
2022-11-21T11:18:51.629Z,11.70
2022-11-21T11:21:24.761Z,10.30
2022-11-21T11:23:53.463Z,10.93
2022-11-21T11:26:31.387Z,11.82
2022-11-21T11:29:15.631Z,11.32
2022-11-21T11:31:44.013Z,10.93
2022-11-21T11:34:15.138Z,10.27
2022-11-21T11:36:50.497Z,11.38
2022-11-21T11:39:24.922Z,13.68
2022-11-21T11:42:39.679Z,10.98
2022-11-21T11:45:30.847Z,13.02
2022-11-21T11:48:01.406Z,10.05
2022-11-21T11:50:43.712Z,13.73
2022-11-21T11:53:35.032Z,14.82
2022-11-21T11:56:18.769Z,15.25
2022-11-21T11:58:54.871Z,16.38
2022-11-21T12:01:25.231Z,16.05
2022-11-21T12:04:00.014Z,16.45
2022-11-21T12:06:57.362Z,15.35
2022-11-21T12:09:39.820Z,13.85
2022-11-21T12:12:16.248Z,13.52
2022-11-21T12:15:18.237Z,14.90
2022-11-21T12:18:15.352Z,14.80
2022-11-21T12:21:02.777Z,14.32
2022-11-21T12:23:36.803Z,15.15
2022-11-21T12:26:28.109Z,17.77
2022-11-21T12:29:32.512Z,15.20
2022-11-21T12:32:09.050Z,16.88
2022-11-21T12:34:41.305Z,16.48
2022-11-21T12:37:44.661Z,16.63
2022-11-21T12:40:46.202Z,17.77
2022-11-21T12:43:19.170Z,18.05
2022-11-21T12:45:52.800Z,17.33
2022-11-21T12:48:59.064Z,16.65
2022-11-21T12:51:50.650Z,17.33
2022-11-21T12:54:33.230Z,18.58
2022-11-21T12:57:13.978Z,21.33
2022-11-21T12:59:49.649Z,16.85
2022-11-21T13:02:29.425Z,18.27
2022-11-21T13:04:58.439Z,17.73
2022-11-21T13:07:29.570Z,19.05
2022-11-21T13:09:59.030Z,18.25
2022-11-21T13:13:02.717Z,17.67
2022-11-21T13:15:40.482Z,17.40
2022-11-21T13:18:41.729Z,17.17
2022-11-21T13:21:41.531Z,17.95
2022-11-21T13:24:08.684Z,17.38
2022-11-21T13:26:37.937Z,15.50
2022-11-21T13:29:14.540Z,17.63
2022-11-21T13:31:41.873Z,16.75
2022-11-21T13:34:37.341Z,16.35
2022-11-21T13:37:05.183Z,18.13
2022-11-21T13:39:33.915Z,16.35
2022-11-21T13:42:20.906Z,20.83
2022-11-21T13:44:48.121Z,17.33
2022-11-21T13:47:26.393Z,17.13
2022-11-21T13:50:05.408Z,18.90
2022-11-21T13:52:49.544Z,17.60
2022-11-21T13:55:54.840Z,17.65
2022-11-21T13:58:48.862Z,16.10
2022-11-21T14:01:27.540Z,17.20
2022-11-21T14:04:12.923Z,17.38
2022-11-21T14:06:43.416Z,18.52
2022-11-21T14:09:13.048Z,19.15
2022-11-21T14:11:48.091Z,18.83
2022-11-21T14:14:49.699Z,17.10
2022-11-21T14:17:47.296Z,16.65
2022-11-21T14:20:22.470Z,18.27
2022-11-21T14:23:00.273Z,18.23
2022-11-21T14:25:49.314Z,18.98
2022-11-21T14:28:25.188Z,19.13
2022-11-21T14:31:00.141Z,19.33
2022-11-21T14:33:33.595Z,19.35
2022-11-21T14:36:03.220Z,18.10
2022-11-21T14:38:33.011Z,20.63
2022-11-21T14:41:26.790Z,18.33
2022-11-21T14:43:58.972Z,18.80
2022-11-21T14:46:27.570Z,18.65
2022-11-21T14:48:54.565Z,19.70
2022-11-21T14:51:24.213Z,19.35
2022-11-21T14:53:53.573Z,19.73
2022-11-21T14:56:23.421Z,21.80
2022-11-21T14:58:51.608Z,21.55
2022-11-21T15:01:21.950Z,21.27
2022-11-21T15:04:04.310Z,20.50
2022-11-21T15:06:39.703Z,20.98
2022-11-21T15:12:02.441Z,22.50
2022-11-21T15:15:13.239Z,20.60
2022-11-21T15:18:03.391Z,20.52
2022-11-21T15:20:28.214Z,22.85
2022-11-21T15:22:57.566Z,23.48
2022-11-21T15:25:47.328Z,23.83
2022-11-21T15:28:18.287Z,25.02
2022-11-21T15:30:45.520Z,25.27
2022-11-21T15:33:17.533Z,25.48
2022-11-21T15:36:13.821Z,25.02
2022-11-21T15:38:53.456Z,22.95
2022-11-21T15:41:19.814Z,23.42
2022-11-21T15:43:52.241Z,21.60
2022-11-21T15:46:25.464Z,19.13
2022-11-21T15:48:55.697Z,19.30
2022-11-21T15:52:06.217Z,20.75
2022-11-21T15:54:28.634Z,21.15
2022-11-21T15:56:55.363Z,21.77
2022-11-21T15:59:21.783Z,23.40
2022-11-21T16:01:48.207Z,23.08
2022-11-21T16:04:14.934Z,23.30
2022-11-21T16:06:41.550Z,23.08
2022-11-21T16:09:07.987Z,25.25
2022-11-21T16:11:43.570Z,25.45
2022-11-21T16:14:14.266Z,24.13
2022-11-21T16:16:43.713Z,23.95
2022-11-21T16:19:11.985Z,22.90
2022-11-21T16:21:38.906Z,24.25
2022-11-21T16:24:05.821Z,24.30
2022-11-21T16:26:33.380Z,23.67
2022-11-21T16:29:01.047Z,22.90
2022-11-21T16:31:29.801Z,23.27
2022-11-21T16:33:56.627Z,22.05
2022-11-21T16:36:27.180Z,22.40
2022-11-21T16:38:53.935Z,23.07
2022-11-21T16:41:22.494Z,21.52
2022-11-21T16:43:51.302Z,21.88
2022-11-21T16:46:18.944Z,22.85
2022-11-21T16:48:45.577Z,23.13
2022-11-21T16:51:20.213Z,21.75
2022-11-21T16:53:49.173Z,21.17
2022-11-21T16:56:16.595Z,22.42
2022-11-21T16:58:43.283Z,23.35
2022-11-21T17:01:12.620Z,22.73
2022-11-21T17:03:40.546Z,23.15
2022-11-21T17:06:08.025Z,24.13
2022-11-21T17:08:35.283Z,23.08
2022-11-21T17:11:11.675Z,23.67
2022-11-21T17:13:38.194Z,25.20
2022-11-21T17:16:07.896Z,25.80
2022-11-21T17:18:34.347Z,25.40
2022-11-21T17:21:05.266Z,25.10
2022-11-21T17:23:32.838Z,25.98
2022-11-21T17:26:04.188Z,24.73
2022-11-21T17:30:57.198Z,26.08
2022-11-21T17:33:23.915Z,25.90
2022-11-21T17:35:50.733Z,26.73
2022-11-21T17:38:17.408Z,27.42
2022-11-21T17:40:44.075Z,27.15
2022-11-21T17:43:10.611Z,27.08
2022-11-21T17:45:37.046Z,27.75
2022-11-21T17:48:03.603Z,27.10
2022-11-21T17:50:30.062Z,27.55
2022-11-21T17:52:57.123Z,28.25
2022-11-21T17:55:23.515Z,27.52
2022-11-21T17:57:49.985Z,26.30
2022-11-21T18:00:16.496Z,27.33
2022-11-21T18:02:43.096Z,27.60
2022-11-21T18:05:09.706Z,29.42
2022-11-21T18:07:37.642Z,28.55
2022-11-21T18:10:20.822Z,27.35
2022-11-21T18:12:51.492Z,26.42
2022-11-21T18:15:18.066Z,29.25
2022-11-21T18:17:44.738Z,27.60
2022-11-21T18:20:11.467Z,26.77
2022-11-21T18:22:37.848Z,26.95
2022-11-21T18:25:04.550Z,25.80
2022-11-21T18:27:31.030Z,28.08
2022-11-21T18:29:57.424Z,27.85
2022-11-21T18:32:24.068Z,28.35
2022-11-21T18:34:50.533Z,26.70
2022-11-21T18:37:16.924Z,24.90
2022-11-21T18:39:43.352Z,25.88
2022-11-21T18:42:09.766Z,24.70
2022-11-21T18:44:36.153Z,26.83
2022-11-21T18:47:11.972Z,24.33
2022-11-21T18:49:45.976Z,24.45
2022-11-21T18:52:12.364Z,25.70
2022-11-21T18:54:39.907Z,24.10
2022-11-21T18:57:06.361Z,25.55
2022-11-21T18:59:32.787Z,24.48
2022-11-21T19:01:59.286Z,25.20
2022-11-21T19:04:25.843Z,24.42
2022-11-21T19:06:52.314Z,25.80
2022-11-21T19:09:18.853Z,25.60
2022-11-21T19:11:45.361Z,25.38
2022-11-21T19:14:11.845Z,25.88
2022-11-21T19:16:38.349Z,25.35
2022-11-21T19:21:56.963Z,25.67
2022-11-21T19:24:24.475Z,25.98
2022-11-21T19:26:51.013Z,24.02
2022-11-21T19:29:17.741Z,24.55
2022-11-21T19:31:46.009Z,25.08
2022-11-21T19:34:16.548Z,24.58
2022-11-21T19:36:43.352Z,24.23
2022-11-21T19:39:09.960Z,26.23
2022-11-21T19:41:36.796Z,23.50
2022-11-21T19:44:03.854Z,23.55
2022-11-21T19:46:36.727Z,24.75
2022-11-21T19:49:04.057Z,23.58
2022-11-21T19:51:33.554Z,21.58
2022-11-21T19:54:02.281Z,22.63
2022-11-21T19:56:28.891Z,23.13
2022-11-21T19:58:56.834Z,21.27
2022-11-21T20:01:25.807Z,23.17
2022-11-21T20:03:54.940Z,21.55
2022-11-21T20:06:24.500Z,20.92
2022-11-21T20:08:54.035Z,22.20
2022-11-21T20:11:21.463Z,20.27
2022-11-21T20:13:49.258Z,21.08
2022-11-21T20:16:19.935Z,20.05
2022-11-21T20:18:46.868Z,15.57
2022-11-21T20:21:14.067Z,19.40
2022-11-21T20:23:40.556Z,18.73
2022-11-21T20:26:08.856Z,19.85
2022-11-21T20:28:36.686Z,20.77
2022-11-21T20:31:19.721Z,18.27
2022-11-21T20:33:51.429Z,17.65
2022-11-21T20:36:20.318Z,17.55
2022-11-21T20:39:00.937Z,17.08
2022-11-21T20:41:30.216Z,18.37
2022-11-21T20:46:45.518Z,16.98
2022-11-21T20:49:12.560Z,17.10
2022-11-21T20:54:26.591Z,16.75
2022-11-21T20:56:53.188Z,16.67
2022-11-21T20:59:19.583Z,16.52
2022-11-21T21:01:46.092Z,15.10
2022-11-21T21:04:12.542Z,17.02
2022-11-21T21:06:39.547Z,15.48
2022-11-21T21:09:06.078Z,16.33
2022-11-21T21:14:19.150Z,15.38
2022-11-21T21:16:45.709Z,15.32
2022-11-21T21:19:12.110Z,15.60
2022-11-21T21:21:40.178Z,15.10
2022-11-21T21:24:09.566Z,15.88
2022-11-21T21:26:43.223Z,15.07
2022-11-21T21:29:12.244Z,15.90
2022-11-21T21:31:38.989Z,16.15
2022-11-21T21:34:05.448Z,15.95
2022-11-21T21:36:32.425Z,16.55
2022-11-21T21:38:59.978Z,15.15
2022-11-21T21:41:27.972Z,16.42
2022-11-21T21:43:55.856Z,15.45
2022-11-21T21:46:24.492Z,15.95
2022-11-21T21:48:56.321Z,16.17
2022-11-21T21:51:22.779Z,15.88
2022-11-21T21:53:50.794Z,16.17
2022-11-21T21:56:18.673Z,15.98
2022-11-21T21:58:47.164Z,16.42
2022-11-21T22:01:22.834Z,15.75
2022-11-21T22:03:53.022Z,15.80
2022-11-21T22:06:19.833Z,15.00
2022-11-21T22:08:47.989Z,15.70
2022-11-21T22:11:17.165Z,15.13
2022-11-21T22:13:45.961Z,16.50
2022-11-21T22:16:13.174Z,16.23
2022-11-21T22:18:40.511Z,16.77
2022-11-21T22:21:17.681Z,17.55
2022-11-21T22:24:02.911Z,17.27
2022-11-21T22:26:31.474Z,17.58
2022-11-21T22:28:57.961Z,17.90
2022-11-21T22:31:24.437Z,16.88
2022-11-21T22:33:50.896Z,17.92
2022-11-21T22:36:18.632Z,17.42
2022-11-21T22:38:45.258Z,17.83
2022-11-21T22:41:17.167Z,17.33
2022-11-21T22:43:44.918Z,16.80
2022-11-21T22:46:12.799Z,18.38
2022-11-21T22:48:40.231Z,18.92
2022-11-21T22:51:07.395Z,18.05
2022-11-21T22:53:39.759Z,17.63
2022-11-21T22:56:10.948Z,18.95
2022-11-21T22:58:39.626Z,17.23
2022-11-21T23:01:10.682Z,18.35
2022-11-21T23:03:37.306Z,18.42
2022-11-21T23:06:12.089Z,16.85
2022-11-21T23:08:39.917Z,18.98
2022-11-21T23:11:18.017Z,17.88
2022-11-21T23:13:46.372Z,19.08
2022-11-21T23:16:13.516Z,20.33
2022-11-21T23:18:40.453Z,20.60
2022-11-21T23:21:07.597Z,20.52
2022-11-21T23:23:34.474Z,20.08
2022-11-21T23:26:01.118Z,20.17
2022-11-21T23:28:27.632Z,19.60
2022-11-21T23:30:54.992Z,21.10
2022-11-21T23:33:21.737Z,21.05
2022-11-21T23:35:48.453Z,20.75
2022-11-21T23:38:16.418Z,22.00
2022-11-21T23:40:45.209Z,21.23
2022-11-21T23:43:12.180Z,23.33
2022-11-21T23:45:38.940Z,21.85
2022-11-21T23:48:05.467Z,23.00
2022-11-21T23:50:31.952Z,21.02
2022-11-21T23:52:58.506Z,22.50
2022-11-21T23:55:24.900Z,21.40
2022-11-21T23:57:51.654Z,22.67
